sensor_id;sensor_type;location;lat;lon;timestamp;pressure;altitude;pressure_sealevel;temperature;humidity
39265;BME280;42646;51.910;7.724;2023-08-07T00:00:08;100333.53;;;14.57;100.00
39265;BME280;42646;51.910;7.724;2023-08-07T00:02:36;100334.34;;;14.58;100.00
39265;BME280;42646;51.910;7.724;2023-08-07T00:05:05;100332.50;;;14.58;100.00
39265;BME280;42646;51.910;7.724;2023-08-07T00:07:33;100333.53;;;14.57;100.00
39265;BME280;42646;51.910;7.724;2023-08-07T00:10:04;100327.00;;;14.60;100.00
39265;BME280;42646;51.910;7.724;2023-08-07T00:12:32;100323.50;;;14.59;100.00
39265;BME280;42646;51.910;7.724;2023-08-07T00:15:00;100325.34;;;14.59;100.00
39265;BME280;42646;51.910;7.724;2023-08-07T00:17:29;100329.69;;;14.60;100.00
39265;BME280;42646;51.910;7.724;2023-08-07T00:19:57;100323.50;;;14.59;100.00
39265;BME280;42646;51.910;7.724;2023-08-07T00:22:25;100327.00;;;14.60;100.00
39265;BME280;42646;51.910;7.724;2023-08-07T00:24:54;100328.84;;;14.59;100.00
39265;BME280;42646;51.910;7.724;2023-08-07T00:27:22;100323.31;;;14.61;100.00
39265;BME280;42646;51.910;7.724;2023-08-07T00:29:50;100327.00;;;14.60;100.00
39265;BME280;42646;51.910;7.724;2023-08-07T00:32:18;100318.97;;;14.60;100.00
39265;BME280;42646;51.910;7.724;2023-08-07T00:34:47;100320.00;;;14.59;100.00
39265;BME280;42646;51.910;7.724;2023-08-07T00:37:16;100321.81;;;14.58;100.00
39265;BME280;42646;51.910;7.724;2023-08-07T00:39:45;100323.31;;;14.61;100.00
39265;BME280;42646;51.910;7.724;2023-08-07T00:42:13;100325.16;;;14.60;100.00
39265;BME280;42646;51.910;7.724;2023-08-07T00:44:41;100326.00;;;14.61;100.00
39265;BME280;42646;51.910;7.724;2023-08-07T00:47:09;100320.81;;;14.59;100.00
39265;BME280;42646;51.910;7.724;2023-08-07T00:49:37;100314.44;;;14.60;100.00
39265;BME280;42646;51.910;7.724;2023-08-07T00:52:08;100317.97;;;14.61;100.00
39265;BME280;42646;51.910;7.724;2023-08-07T00:54:37;100322.31;;;14.62;100.00
39265;BME280;42646;51.910;7.724;2023-08-07T00:57:10;100322.13;;;14.63;100.00
39265;BME280;42646;51.910;7.724;2023-08-07T00:59:39;100333.00;;;14.62;100.00
39265;BME280;42646;51.910;7.724;2023-08-07T01:02:07;100324.97;;;14.62;100.00
39265;BME280;42646;51.910;7.724;2023-08-07T01:04:35;100322.31;;;14.62;100.00
39265;BME280;42646;51.910;7.724;2023-08-07T01:07:06;100318.78;;;14.61;100.00
39265;BME280;42646;51.910;7.724;2023-08-07T01:09:35;100322.94;;;14.64;100.00
39265;BME280;42646;51.910;7.724;2023-08-07T01:12:10;100317.78;;;14.62;100.00
39265;BME280;42646;51.910;7.724;2023-08-07T01:14:49;100322.13;;;14.63;100.00
39265;BME280;42646;51.910;7.724;2023-08-07T01:17:25;100318.63;;;14.63;100.00
39265;BME280;42646;51.910;7.724;2023-08-07T01:19:55;100317.59;;;14.64;100.00
39265;BME280;42646;51.910;7.724;2023-08-07T01:22:29;100320.97;;;14.66;100.00
39265;BME280;42646;51.910;7.724;2023-08-07T01:24:56;100318.44;;;14.64;100.00
39265;BME280;42646;51.910;7.724;2023-08-07T01:27:31;100321.78;;;14.66;100.00
39265;BME280;42646;51.910;7.724;2023-08-07T01:30:09;100329.81;;;14.66;100.00
39265;BME280;42646;51.910;7.724;2023-08-07T01:32:49;100323.47;;;14.67;100.00
39265;BME280;42646;51.910;7.724;2023-08-07T01:35:22;100326.97;;;14.68;100.00
39265;BME280;42646;51.910;7.724;2023-08-07T01:38:21;100333.34;;;14.67;100.00
39265;BME280;42646;51.910;7.724;2023-08-07T01:40:52;100338.69;;;14.67;100.00
39265;BME280;42646;51.910;7.724;2023-08-07T01:43:21;100326.97;;;14.68;100.00
39265;BME280;42646;51.910;7.724;2023-08-07T01:45:49;100335.19;;;14.66;100.00
39265;BME280;42646;51.910;7.724;2023-08-07T01:48:17;100333.97;;;14.69;100.00
39265;BME280;42646;51.910;7.724;2023-08-07T01:50:46;100330.28;;;14.70;100.00
39265;BME280;42646;51.910;7.724;2023-08-07T01:53:13;100337.34;;;14.71;100.00
39265;BME280;42646;51.910;7.724;2023-08-07T01:55:43;100343.53;;;14.72;100.00
39265;BME280;42646;51.910;7.724;2023-08-07T01:58:11;100335.31;;;14.73;100.00
39265;BME280;42646;51.910;7.724;2023-08-07T02:00:41;100336.16;;;14.74;100.00
39265;BME280;42646;51.910;7.724;2023-08-07T02:03:09;100335.13;;;14.75;100.00
39265;BME280;42646;51.910;7.724;2023-08-07T02:05:38;100335.81;;;14.77;100.00
39265;BME280;42646;51.910;7.724;2023-08-07T02:08:06;100334.81;;;14.78;100.00
39265;BME280;42646;51.910;7.724;2023-08-07T02:10:36;100339.97;;;14.79;100.00
39265;BME280;42646;51.910;7.724;2023-08-07T02:13:05;100342.47;;;14.81;100.00
39265;BME280;42646;51.910;7.724;2023-08-07T02:15:34;100336.28;;;14.80;100.00
39265;BME280;42646;51.910;7.724;2023-08-07T02:18:02;100349.50;;;14.82;100.00
39265;BME280;42646;51.910;7.724;2023-08-07T02:20:31;100344.97;;;14.82;100.00
39265;BME280;42646;51.910;7.724;2023-08-07T02:23:00;100350.19;;;14.84;100.00
39265;BME280;42646;51.910;7.724;2023-08-07T02:25:53;100348.34;;;14.84;100.00
39265;BME280;42646;51.910;7.724;2023-08-07T02:28:25;100349.34;;;14.83;100.00
39265;BME280;42646;51.910;7.724;2023-08-07T02:30:53;100350.34;;;14.82;100.00
39265;BME280;42646;51.910;7.724;2023-08-07T02:33:21;100365.41;;;14.83;100.00
39265;BME280;42646;51.910;7.724;2023-08-07T02:35:50;100361.22;;;14.81;100.00
39265;BME280;42646;51.910;7.724;2023-08-07T02:38:20;100358.56;;;14.81;100.00
39265;BME280;42646;51.910;7.724;2023-08-07T02:40:47;100363.06;;;14.80;100.00
39265;BME280;42646;51.910;7.724;2023-08-07T02:43:15;100360.22;;;14.82;100.00
39265;BME280;42646;51.910;7.724;2023-08-07T02:45:44;100354.84;;;14.82;100.00
39265;BME280;42646;51.910;7.724;2023-08-07T02:48:12;100359.22;;;14.83;100.00
39265;BME280;42646;51.910;7.724;2023-08-07T02:50:40;100360.91;;;14.84;100.00
39265;BME280;42646;51.910;7.724;2023-08-07T02:53:10;100355.53;;;14.84;100.00
39265;BME280;42646;51.910;7.724;2023-08-07T02:55:38;100352.03;;;14.83;100.00
39265;BME280;42646;51.910;7.724;2023-08-07T02:58:06;100368.09;;;14.83;100.00
39265;BME280;42646;51.910;7.724;2023-08-07T03:00:35;100362.88;;;14.82;100.00
39265;BME280;42646;51.910;7.724;2023-08-07T03:03:04;100355.03;;;14.80;100.00
39265;BME280;42646;51.910;7.724;2023-08-07T03:05:37;100362.06;;;14.81;100.00
39265;BME280;42646;51.910;7.724;2023-08-07T03:08:05;100366.75;;;14.79;100.00
39265;BME280;42646;51.910;7.724;2023-08-07T03:10:33;100368.59;;;14.79;100.00
39265;BME280;42646;51.910;7.724;2023-08-07T03:13:01;100370.78;;;14.75;100.00
39265;BME280;42646;51.910;7.724;2023-08-07T03:15:30;100360.91;;;14.76;100.00
39265;BME280;42646;51.910;7.724;2023-08-07T03:17:59;100357.75;;;14.72;100.00
39265;BME280;42646;51.910;7.724;2023-08-07T03:20:29;100359.59;;;14.72;100.00
39265;BME280;42646;51.910;7.724;2023-08-07T03:22:57;100352.59;;;14.71;100.00
39265;BME280;42646;51.910;7.724;2023-08-07T03:25:25;100352.41;;;14.72;100.00
39265;BME280;42646;51.910;7.724;2023-08-07T03:27:53;100357.94;;;14.71;100.00
39265;BME280;42646;51.910;7.724;2023-08-07T03:30:21;100353.56;;;14.69;100.00
39265;BME280;42646;51.910;7.724;2023-08-07T03:32:51;100354.56;;;14.68;100.00
39265;BME280;42646;51.910;7.724;2023-08-07T03:35:21;100348.38;;;14.68;100.00
39265;BME280;42646;51.910;7.724;2023-08-07T03:37:50;100356.25;;;14.69;100.00
39265;BME280;42646;51.910;7.724;2023-08-07T03:40:18;100360.63;;;14.71;100.00
39265;BME280;42646;51.910;7.724;2023-08-07T03:42:46;100351.91;;;14.68;100.00
39265;BME280;42646;51.910;7.724;2023-08-07T03:45:18;100357.25;;;14.68;100.00
39265;BME280;42646;51.910;7.724;2023-08-07T03:47:47;100359.94;;;14.68;100.00
39265;BME280;42646;51.910;7.724;2023-08-07T03:50:16;100365.28;;;14.68;100.00
39265;BME280;42646;51.910;7.724;2023-08-07T03:52:43;100364.63;;;14.66;100.00
39265;BME280;42646;51.910;7.724;2023-08-07T03:55:14;100366.47;;;14.66;100.00
39265;BME280;42646;51.910;7.724;2023-08-07T03:58:07;100363.94;;;14.64;100.00
39265;BME280;42646;51.910;7.724;2023-08-07T04:00:36;100363.13;;;14.64;100.00
39265;BME280;42646;51.910;7.724;2023-08-07T04:03:05;100362.47;;;14.62;100.00
39265;BME280;42646;51.910;7.724;2023-08-07T04:05:34;100371.31;;;14.62;100.00
39265;BME280;42646;51.910;7.724;2023-08-07T04:08:02;100364.13;;;14.63;100.00
39265;BME280;42646;51.910;7.724;2023-08-07T04:10:32;100368.00;;;14.60;100.00
39265;BME280;42646;51.910;7.724;2023-08-07T04:13:02;100365.31;;;14.60;100.00
39265;BME280;42646;51.910;7.724;2023-08-07T04:15:30;100360.97;;;14.59;100.00
39265;BME280;42646;51.910;7.724;2023-08-07T04:17:58;100362.66;;;14.60;100.00
39265;BME280;42646;51.910;7.724;2023-08-07T04:20:27;100352.94;;;14.59;100.00
39265;BME280;42646;51.910;7.724;2023-08-07T04:22:55;100364.63;;;14.58;100.00
39265;BME280;42646;51.910;7.724;2023-08-07T04:25:23;100371.84;;;14.58;100.00
39265;BME280;42646;51.910;7.724;2023-08-07T04:27:52;100367.50;;;14.57;100.00
39265;BME280;42646;51.910;7.724;2023-08-07T04:30:19;100377.19;;;14.58;100.00
39265;BME280;42646;51.910;7.724;2023-08-07T04:32:47;100381.72;;;14.57;100.00
39265;BME280;42646;51.910;7.724;2023-08-07T04:35:18;100380.03;;;14.56;100.00
39265;BME280;42646;51.910;7.724;2023-08-07T04:37:46;100387.06;;;14.57;100.00
39265;BME280;42646;51.910;7.724;2023-08-07T04:40:13;100386.41;;;14.55;100.00
39265;BME280;42646;51.910;7.724;2023-08-07T04:42:41;100386.22;;;14.57;100.00
39265;BME280;42646;51.910;7.724;2023-08-07T04:45:10;100382.72;;;14.56;100.00
39265;BME280;42646;51.910;7.724;2023-08-07T04:47:38;100384.38;;;14.57;100.00
39265;BME280;42646;51.910;7.724;2023-08-07T04:50:07;100383.38;;;14.58;100.00
39265;BME280;42646;51.910;7.724;2023-08-07T04:53:01;100388.91;;;14.57;100.00
39265;BME280;42646;51.910;7.724;2023-08-07T04:55:33;100375.69;;;14.55;100.00
39265;BME280;42646;51.910;7.724;2023-08-07T04:58:01;100384.38;;;14.57;100.00
39265;BME280;42646;51.910;7.724;2023-08-07T05:00:30;100384.38;;;14.57;100.00
39265;BME280;42646;51.910;7.724;2023-08-07T05:02:59;100381.06;;;14.55;100.00
39265;BME280;42646;51.910;7.724;2023-08-07T05:05:28;100389.09;;;14.55;100.00
39265;BME280;42646;51.910;7.724;2023-08-07T05:07:58;100398.97;;;14.55;100.00
39265;BME280;42646;51.910;7.724;2023-08-07T05:10:26;100397.78;;;14.57;100.00
39265;BME280;42646;51.910;7.724;2023-08-07T05:13:18;100396.47;;;14.53;100.00
39265;BME280;42646;51.910;7.724;2023-08-07T05:15:48;100394.78;;;14.52;100.00
39265;BME280;42646;51.910;7.724;2023-08-07T05:18:16;100400.13;;;14.52;100.00
39265;BME280;42646;51.910;7.724;2023-08-07T05:20:47;100402.66;;;14.54;100.00
39265;BME280;42646;51.910;7.724;2023-08-07T05:23:15;100409.84;;;14.53;100.00
39265;BME280;42646;51.910;7.724;2023-08-07T05:25:45;100409.00;;;14.53;100.00
39265;BME280;42646;51.910;7.724;2023-08-07T05:28:15;100413.50;;;14.52;100.00
39265;BME280;42646;51.910;7.724;2023-08-07T05:30:43;100421.53;;;14.52;100.00
39265;BME280;42646;51.910;7.724;2023-08-07T05:33:12;100419.03;;;14.51;100.00
39265;BME280;42646;51.910;7.724;2023-08-07T05:35:42;100411.00;;;14.51;100.00
39265;BME280;42646;51.910;7.724;2023-08-07T05:38:09;100417.38;;;14.50;100.00
39265;BME280;42646;51.910;7.724;2023-08-07T05:40:37;100430.56;;;14.51;100.00
39265;BME280;42646;51.910;7.724;2023-08-07T05:43:08;100428.06;;;14.50;100.00
39265;BME280;42646;51.910;7.724;2023-08-07T05:45:37;100437.94;;;14.49;100.00
39265;BME280;42646;51.910;7.724;2023-08-07T05:48:06;100429.91;;;14.49;100.00
39265;BME280;42646;51.910;7.724;2023-08-07T05:50:37;100438.78;;;14.50;100.00
39265;BME280;42646;51.910;7.724;2023-08-07T05:53:04;100439.44;;;14.52;100.00
39265;BME280;42646;51.910;7.724;2023-08-07T05:55:39;100432.41;;;14.51;100.00
39265;BME280;42646;51.910;7.724;2023-08-07T05:58:07;100438.97;;;14.48;100.00
39265;BME280;42646;51.910;7.724;2023-08-07T06:00:37;100427.25;;;14.49;100.00
39265;BME280;42646;51.910;7.724;2023-08-07T06:03:05;100436.94;;;14.50;100.00
39265;BME280;42646;51.910;7.724;2023-08-07T06:05:33;100440.81;;;14.48;100.00
39265;BME280;42646;51.910;7.724;2023-08-07T06:08:02;100440.63;;;14.49;100.00
39265;BME280;42646;51.910;7.724;2023-08-07T06:10:31;100442.47;;;14.49;100.00
39265;BME280;42646;51.910;7.724;2023-08-07T06:12:59;100436.75;;;14.52;100.00
39265;BME280;42646;51.910;7.724;2023-08-07T06:15:29;100450.00;;;14.53;100.00
39265;BME280;42646;51.910;7.724;2023-08-07T06:17:57;100449.81;;;14.55;100.00
39265;BME280;42646;51.910;7.724;2023-08-07T06:20:24;100455.19;;;14.55;100.00
39265;BME280;42646;51.910;7.724;2023-08-07T06:23:19;100453.16;;;14.57;100.00
39265;BME280;42646;51.910;7.724;2023-08-07T06:25:46;100458.19;;;14.60;100.00
39265;BME280;42646;51.910;7.724;2023-08-07T06:28:16;100459.03;;;14.60;100.00
39265;BME280;42646;51.910;7.724;2023-08-07T06:30:43;100454.50;;;14.61;100.00
39265;BME280;42646;51.910;7.724;2023-08-07T06:33:11;100454.31;;;14.62;100.00
39265;BME280;42646;51.910;7.724;2023-08-07T06:35:41;100448.66;;;14.65;100.00
39265;BME280;42646;51.910;7.724;2023-08-07T06:38:09;100452.81;;;14.68;100.00
39265;BME280;42646;51.910;7.724;2023-08-07T06:41:04;100455.16;;;14.71;100.00
39265;BME280;42646;51.910;7.724;2023-08-07T06:43:32;100452.31;;;14.73;100.00
39265;BME280;42646;51.910;7.724;2023-08-07T06:46:00;100460.00;;;14.76;100.00
39265;BME280;42646;51.910;7.724;2023-08-07T06:48:28;100458.00;;;14.78;100.00
39265;BME280;42646;51.910;7.724;2023-08-07T06:50:56;100471.03;;;14.81;100.00
39265;BME280;42646;51.910;7.724;2023-08-07T06:53:24;100464.50;;;14.83;100.00
39265;BME280;42646;51.910;7.724;2023-08-07T06:55:54;100470.69;;;14.84;100.00
39265;BME280;42646;51.910;7.724;2023-08-07T06:58:24;100471.34;;;14.86;100.00
39265;BME280;42646;51.910;7.724;2023-08-07T07:00:53;100471.03;;;14.89;100.00
39265;BME280;42646;51.910;7.724;2023-08-07T07:03:21;100475.19;;;14.91;100.00
39265;BME280;42646;51.910;7.724;2023-08-07T07:05:49;100477.19;;;14.98;100.00
39265;BME280;42646;51.910;7.724;2023-08-07T07:08:18;100483.19;;;15.00;100.00
39265;BME280;42646;51.910;7.724;2023-08-07T07:10:47;100478.53;;;15.02;100.00
39265;BME280;42646;51.910;7.724;2023-08-07T07:13:14;100480.03;;;15.04;100.00
39265;BME280;42646;51.910;7.724;2023-08-07T07:15:44;100490.41;;;15.07;100.00
39265;BME280;42646;51.910;7.724;2023-08-07T07:18:13;100491.06;;;15.09;100.00
39265;BME280;42646;51.910;7.724;2023-08-07T07:20:41;100489.88;;;15.12;100.00
39265;BME280;42646;51.910;7.724;2023-08-07T07:23:09;100494.06;;;15.14;100.00
39265;BME280;42646;51.910;7.724;2023-08-07T07:25:40;100495.22;;;15.20;100.00
39265;BME280;42646;51.910;7.724;2023-08-07T07:28:08;100493.56;;;15.19;100.00
39265;BME280;42646;51.910;7.724;2023-08-07T07:30:38;100498.56;;;15.22;100.00
39265;BME280;42646;51.910;7.724;2023-08-07T07:33:08;100496.56;;;15.24;100.00
39265;BME280;42646;51.910;7.724;2023-08-07T07:35:37;100500.72;;;15.27;100.00
39265;BME280;42646;51.910;7.724;2023-08-07T07:38:05;100502.72;;;15.33;100.00
39265;BME280;42646;51.910;7.724;2023-08-07T07:40:34;100506.56;;;15.38;100.00
39265;BME280;42646;51.910;7.724;2023-08-07T07:43:03;100495.78;;;15.46;100.00
39265;BME280;42646;51.910;7.724;2023-08-07T07:45:31;100501.97;;;15.55;100.00
39265;BME280;42646;51.910;7.724;2023-08-07T07:48:00;100505.47;;;15.64;100.00
39265;BME280;42646;51.910;7.724;2023-08-07T07:50:29;100504.75;;;15.70;100.00
39265;BME280;42646;51.910;7.724;2023-08-07T07:52:58;100500.72;;;15.74;100.00
39265;BME280;42646;51.910;7.724;2023-08-07T07:55:26;100503.53;;;15.81;100.00
39265;BME280;42646;51.910;7.724;2023-08-07T07:57:54;100505.69;;;15.85;100.00
39265;BME280;42646;51.910;7.724;2023-08-07T08:00:23;100509.88;;;15.88;100.00
39265;BME280;42646;51.910;7.724;2023-08-07T08:02:54;100530.31;;;15.89;100.00
39265;BME280;42646;51.910;7.724;2023-08-07T08:05:23;100540.38;;;15.87;100.00
39265;BME280;42646;51.910;7.724;2023-08-07T08:08:17;100541.72;;;15.91;100.00
39265;BME280;42646;51.910;7.724;2023-08-07T08:10:46;100545.63;;;15.80;100.00
39265;BME280;42646;51.910;7.724;2023-08-07T08:13:15;100539.28;;;15.73;100.00
39265;BME280;42646;51.910;7.724;2023-08-07T08:15:44;100554.22;;;15.67;100.00
39265;BME280;42646;51.910;7.724;2023-08-07T08:18:12;100562.94;;;15.61;100.00
39265;BME280;42646;51.910;7.724;2023-08-07T08:20:40;100561.66;;;15.49;100.00
39265;BME280;42646;51.910;7.724;2023-08-07T08:23:08;100562.34;;;15.43;100.00
39265;BME280;42646;51.910;7.724;2023-08-07T08:25:39;100555.31;;;15.34;100.00
39265;BME280;42646;51.910;7.724;2023-08-07T08:28:06;100563.84;;;15.29;100.00
39265;BME280;42646;51.910;7.724;2023-08-07T08:30:36;100563.03;;;15.29;100.00
39265;BME280;42646;51.910;7.724;2023-08-07T08:33:04;100570.22;;;15.36;100.00
39265;BME280;42646;51.910;7.724;2023-08-07T08:35:33;100569.53;;;15.42;100.00
39265;BME280;42646;51.910;7.724;2023-08-07T08:38:01;100566.13;;;15.57;100.00
39265;BME280;42646;51.910;7.724;2023-08-07T08:40:31;100568.81;;;15.65;100.00
39265;BME280;42646;51.910;7.724;2023-08-07T08:43:04;100569.75;;;15.80;100.00
39265;BME280;42646;51.910;7.724;2023-08-07T08:45:33;100572.75;;;15.85;100.00
39265;BME280;42646;51.910;7.724;2023-08-07T08:48:04;100571.53;;;15.96;100.00
39265;BME280;42646;51.910;7.724;2023-08-07T08:50:33;100580.19;;;16.06;100.00
39265;BME280;42646;51.910;7.724;2023-08-07T08:53:02;100578.19;;;16.08;100.00
39265;BME280;42646;51.910;7.724;2023-08-07T08:55:30;100581.03;;;16.07;100.00
39265;BME280;42646;51.910;7.724;2023-08-07T08:57:59;100581.88;;;16.07;100.00
39265;BME280;42646;51.910;7.724;2023-08-07T09:00:30;100605.38;;;16.05;100.00
39265;BME280;42646;51.910;7.724;2023-08-07T09:02:58;100607.78;;;15.92;100.00
39265;BME280;42646;51.910;7.724;2023-08-07T09:05:28;100602.59;;;15.82;100.00
39265;BME280;42646;51.910;7.724;2023-08-07T09:07:58;100609.22;;;15.71;100.00
39265;BME280;42646;51.910;7.724;2023-08-07T09:10:27;100607.56;;;15.62;100.00
39265;BME280;42646;51.910;7.724;2023-08-07T09:13:00;100608.53;;;15.53;100.00
39265;BME280;42646;51.910;7.724;2023-08-07T09:15:32;100609.53;;;15.52;100.00
39265;BME280;42646;51.910;7.724;2023-08-07T09:18:03;100603.84;;;15.55;100.00
39265;BME280;42646;51.910;7.724;2023-08-07T09:20:36;100607.38;;;15.64;100.00
39265;BME280;42646;51.910;7.724;2023-08-07T09:23:07;100607.19;;;15.73;100.00
39265;BME280;42646;51.910;7.724;2023-08-07T09:26:00;100611.81;;;15.88;100.00
39265;BME280;42646;51.910;7.724;2023-08-07T09:28:29;100609.75;;;15.98;100.00
39265;BME280;42646;51.910;7.724;2023-08-07T09:30:59;100608.56;;;16.00;100.00
39265;BME280;42646;51.910;7.724;2023-08-07T09:33:29;100616.78;;;15.99;100.00
39265;BME280;42646;51.910;7.724;2023-08-07T09:36:00;100630.56;;;15.96;100.00
39265;BME280;42646;51.910;7.724;2023-08-07T09:38:29;100628.88;;;15.95;100.00
39265;BME280;42646;51.910;7.724;2023-08-07T09:40:59;100635.25;;;16.02;100.00
39265;BME280;42646;51.910;7.724;2023-08-07T09:43:28;100639.28;;;15.98;100.00
39265;BME280;42646;51.910;7.724;2023-08-07T09:46:03;100641.78;;;15.99;100.00
39265;BME280;42646;51.910;7.724;2023-08-07T09:48:31;100642.47;;;15.93;100.00
39265;BME280;42646;51.910;7.724;2023-08-07T09:51:01;100648.69;;;15.94;100.00
39265;BME280;42646;51.910;7.724;2023-08-07T09:53:31;100645.16;;;15.93;100.00
39265;BME280;42646;51.910;7.724;2023-08-07T09:56:00;100661.25;;;15.93;100.00
39265;BME280;42646;51.910;7.724;2023-08-07T09:58:28;100668.16;;;15.96;100.00
39265;BME280;42646;51.910;7.724;2023-08-07T10:00:58;100659.44;;;15.86;100.00
39265;BME280;42646;51.910;7.724;2023-08-07T10:03:29;100665.31;;;15.81;100.00
39265;BME280;42646;51.910;7.724;2023-08-07T10:05:57;100666.84;;;15.84;100.00
39265;BME280;42646;51.910;7.724;2023-08-07T10:08:29;100671.53;;;15.82;100.00
39265;BME280;42646;51.910;7.724;2023-08-07T10:11:02;100676.22;;;15.80;100.00
39265;BME280;42646;51.910;7.724;2023-08-07T10:13:31;100668.84;;;15.90;100.00
39265;BME280;42646;51.910;7.724;2023-08-07T10:16:06;100674.84;;;15.92;100.00
39265;BME280;42646;51.910;7.724;2023-08-07T10:18:37;100672.00;;;15.93;100.00
39265;BME280;42646;51.910;7.724;2023-08-07T10:21:09;100670.47;;;15.99;100.00
39265;BME280;42646;51.910;7.724;2023-08-07T10:23:43;100684.72;;;16.08;100.00
39265;BME280;42646;51.910;7.724;2023-08-07T10:26:12;100687.06;;;16.02;100.00
39265;BME280;42646;51.910;7.724;2023-08-07T10:29:10;100682.81;;;16.16;100.00
39265;BME280;42646;51.910;7.724;2023-08-07T10:31:40;100680.66;;;16.12;100.00
39265;BME280;42646;51.910;7.724;2023-08-07T10:34:11;100699.75;;;16.17;100.00
39265;BME280;42646;51.910;7.724;2023-08-07T10:36:39;100691.19;;;16.21;100.00
39265;BME280;42646;51.910;7.724;2023-08-07T10:39:09;100689.44;;;16.37;100.00
39265;BME280;42646;51.910;7.724;2023-08-07T10:42:04;100687.88;;;16.42;100.00
39265;BME280;42646;51.910;7.724;2023-08-07T10:44:32;100688.75;;;16.43;100.00
39265;BME280;42646;51.910;7.724;2023-08-07T10:47:02;100696.81;;;16.43;100.00
39265;BME280;42646;51.910;7.724;2023-08-07T10:49:33;100704.69;;;16.44;100.00
39265;BME280;42646;51.910;7.724;2023-08-07T10:52:08;100710.56;;;16.40;100.00
39265;BME280;42646;51.910;7.724;2023-08-07T10:54:38;100713.16;;;16.25;100.00
39265;BME280;42646;51.910;7.724;2023-08-07T10:57:11;100714.53;;;16.13;100.00
39265;BME280;42646;51.910;7.724;2023-08-07T10:59:44;100717.09;;;15.98;100.00
39265;BME280;42646;51.910;7.724;2023-08-07T11:02:12;100711.75;;;15.90;100.00
39265;BME280;42646;51.910;7.724;2023-08-07T11:04:45;100707.91;;;15.84;100.00
39265;BME280;42646;51.910;7.724;2023-08-07T11:07:22;100710.09;;;15.81;100.00
39265;BME280;42646;51.910;7.724;2023-08-07T11:09:51;100712.28;;;15.77;100.00
39265;BME280;42646;51.910;7.724;2023-08-07T11:12:19;100717.63;;;15.85;100.00
39265;BME280;42646;51.910;7.724;2023-08-07T11:14:47;100711.72;;;15.98;100.00
39265;BME280;42646;51.910;7.724;2023-08-07T11:17:16;100710.72;;;16.07;100.00
39265;BME280;42646;51.910;7.724;2023-08-07T11:19:46;100701.09;;;16.21;100.00
39265;BME280;42646;51.910;7.724;2023-08-07T11:22:15;100704.53;;;16.38;100.00
39265;BME280;42646;51.910;7.724;2023-08-07T11:24:44;100708.38;;;16.43;100.00
39265;BME280;42646;51.910;7.724;2023-08-07T11:27:14;100702.44;;;16.56;96.21
39265;BME280;42646;51.910;7.724;2023-08-07T11:30:12;100714.53;;;16.52;96.97
39265;BME280;42646;51.910;7.724;2023-08-07T11:32:43;100704.63;;;16.52;99.40
39265;BME280;42646;51.910;7.724;2023-08-07T11:35:41;100716.19;;;16.61;100.00
39265;BME280;42646;51.910;7.724;2023-08-07T11:38:09;100709.25;;;16.75;99.08
39265;BME280;42646;51.910;7.724;2023-08-07T11:40:37;100716.91;;;16.86;97.76
39265;BME280;42646;51.910;7.724;2023-08-07T11:43:05;100718.69;;;16.94;91.79
39265;BME280;42646;51.910;7.724;2023-08-07T11:45:34;100719.19;;;16.97;91.87
39265;BME280;42646;51.910;7.724;2023-08-07T11:48:04;100730.41;;;17.01;92.71
39265;BME280;42646;51.910;7.724;2023-08-07T11:50:32;100733.78;;;16.95;95.78
39265;BME280;42646;51.910;7.724;2023-08-07T11:53:01;100736.84;;;16.92;93.42
39265;BME280;42646;51.910;7.724;2023-08-07T11:55:29;100738.19;;;16.96;96.19
39265;BME280;42646;51.910;7.724;2023-08-07T11:57:59;100740.09;;;17.10;86.51
39265;BME280;42646;51.910;7.724;2023-08-07T12:00:28;100731.06;;;17.26;86.66
39265;BME280;42646;51.910;7.724;2023-08-07T12:02:56;100730.16;;;17.33;82.89
39265;BME280;42646;51.910;7.724;2023-08-07T12:05:24;100729.13;;;17.57;74.81
39265;BME280;42646;51.910;7.724;2023-08-07T12:07:52;100746.09;;;17.58;78.26
39265;BME280;42646;51.910;7.724;2023-08-07T12:10:22;100743.50;;;17.50;81.35
39265;BME280;42646;51.910;7.724;2023-08-07T12:12:50;100752.38;;;17.50;83.79
39265;BME280;42646;51.910;7.724;2023-08-07T12:15:19;100753.56;;;17.48;85.13
39265;BME280;42646;51.910;7.724;2023-08-07T12:17:47;100756.25;;;17.48;82.13
39265;BME280;42646;51.910;7.724;2023-08-07T12:20:16;100754.50;;;17.55;74.87
39265;BME280;42646;51.910;7.724;2023-08-07T12:22:43;100770.78;;;17.61;75.66
39265;BME280;42646;51.910;7.724;2023-08-07T12:25:11;100763.72;;;17.60;77.17
39265;BME280;42646;51.910;7.724;2023-08-07T12:27:40;100780.56;;;17.54;75.38
39265;BME280;42646;51.910;7.724;2023-08-07T12:30:08;100781.50;;;17.47;77.03
39265;BME280;42646;51.910;7.724;2023-08-07T12:32:36;100782.50;;;17.46;80.54
39265;BME280;42646;51.910;7.724;2023-08-07T12:35:05;100786.63;;;17.56;79.81
39265;BME280;42646;51.910;7.724;2023-08-07T12:37:37;100790.47;;;17.62;78.11
39265;BME280;42646;51.910;7.724;2023-08-07T12:40:06;100799.47;;;17.69;79.73
39265;BME280;42646;51.910;7.724;2023-08-07T12:42:38;100799.81;;;17.74;77.27
39265;BME280;42646;51.910;7.724;2023-08-07T12:45:09;100800.13;;;17.71;79.49
39265;BME280;42646;51.910;7.724;2023-08-07T12:47:38;100795.94;;;17.69;79.99
39265;BME280;42646;51.910;7.724;2023-08-07T12:50:08;100804.66;;;17.71;81.01
39265;BME280;42646;51.910;7.724;2023-08-07T12:52:38;100807.88;;;17.74;80.66
39265;BME280;42646;51.910;7.724;2023-08-07T12:55:06;100805.47;;;17.79;76.47